^^
Saratoga-Weather Station Historical Data
Daily Summary for December 15, 2020 Units:  English    Metric   Both
Daily Weekly Monthly Yearly Custom
  High: Low: Average:
Temperature: 50.9 °F 42.1 °F 46 °F
Dew Point: 49.8 °F 40.5 °F 45.1 °F
Humidity: 98% 92% 96%
Wind Speed: 4.9mph 0mph 0.6mph
Wind Gust: 11mph - -
Wind- - South
Pressure: 30 in 29.8 in -
Precipitation: 0.46 in    
Historical Graphs
 
 
Tabular Data for December 15, 2020
Time Temperature Dew Point Pressure Wind Wind Speed Wind Gust Humidity Rainfall Rate (Hourly) solar
00:00 42.6 °F 40.5 °F 29.8 in Calm     92% 0 in 0 W/m2
00:05 42.6 °F 40.5 °F 29.8 in Calm     92% 0 in 0 W/m2
00:10 42.6 °F 40.5 °F 29.8 in Calm     92% 0.01 in 0 W/m2
00:15 42.6 °F 40.5 °F 29.8 in Calm     92% 0.01 in 0 W/m2
00:20 43 °F 40.8 °F 29.8 in Calm     92% 0.02 in 0 W/m2
00:25 43 °F 41.2 °F 29.8 in Calm     93% 0.02 in 0 W/m2
00:30 43 °F 41.2 °F 29.8 in Calm     93% 0.02 in 0 W/m2
00:35 42.8 °F 41 °F 29.8 in Calm     93% 0.02 in 0 W/m2
00:40 42.8 °F 41.2 °F 29.8 in Calm     94% 0.03 in 0 W/m2
00:45 42.6 °F 41 °F 29.8 in Calm     94% 0.03 in 0 W/m2
00:50 42.6 °F 41 °F 29.8 in Calm     94% 0.04 in 0 W/m2
00:55 42.6 °F 41 °F 29.8 in South 0.9 mph 1 mph 94% 0.05 in 0 W/m2
01:01 42.6 °F 41 °F 29.8 in Calm     94% 0.05 in 0 W/m2
01:06 42.6 °F 41 °F 29.8 in South 0.9 mph 1 mph 94% 0.06 in 0 W/m2
01:11 42.6 °F 41.4 °F 29.8 in Calm   1 mph 95% 0.06 in 0 W/m2
01:16 42.6 °F 41.4 °F 29.8 in Calm     95% 0.06 in 0 W/m2
01:21 42.6 °F 41.4 °F 29.8 in Calm     95% 0.06 in 0 W/m2
01:26 42.4 °F 41.2 °F 29.8 in Calm     95% 0.06 in 0 W/m2
01:31 42.4 °F 41.2 °F 29.8 in Calm     95% 0.06 in 0 W/m2
01:36 42.4 °F 41.2 °F 29.8 in Calm     95% 0.06 in 0 W/m2
01:41 42.4 °F 41.2 °F 29.8 in Calm     95% 0.06 in 0 W/m2
01:46 42.4 °F 41.2 °F 29.8 in Calm     95% 0.06 in 0 W/m2
01:51 42.4 °F 41.2 °F 29.8 in Calm     95% 0.06 in 0 W/m2
01:56 42.4 °F 41.2 °F 29.8 in Calm     95% 0.06 in 0 W/m2
02:01 42.6 °F 41.5 °F 29.8 in Calm     96% 0.06 in 0 W/m2
02:06 42.6 °F 41.4 °F 29.8 in Calm     95% 0.06 in 0 W/m2
02:11 42.6 °F 41.5 °F 29.8 in Calm     96% 0.05 in 0 W/m2
02:16 42.6 °F 41.5 °F 29.8 in Calm     96% 0.05 in 0 W/m2
02:21 42.6 °F 41.5 °F 29.8 in Calm     96% 0.05 in 0 W/m2
02:26 42.6 °F 41.5 °F 29.8 in Calm     96% 0.05 in 0 W/m2
02:31 42.6 °F 41.5 °F 29.8 in Calm     96% 0.05 in 0 W/m2
02:36 42.6 °F 41.5 °F 29.8 in Calm     96% 0.06 in 0 W/m2
02:41 42.8 °F 41.7 °F 29.8 in Calm     96% 0.05 in 0 W/m2
02:46 42.8 °F 41.7 °F 29.8 in Calm     96% 0.05 in 0 W/m2
02:51 42.8 °F 41.7 °F 29.8 in Calm     96% 0.04 in 0 W/m2
02:56 43 °F 41.9 °F 29.8 in Calm     96% 0.05 in 0 W/m2
03:01 43 °F 41.9 °F 29.8 in Calm     96% 0.05 in 0 W/m2
03:06 43 °F 41.9 °F 29.8 in Calm     96% 0.04 in 0 W/m2
03:11 43.2 °F 42.1 °F 29.8 in Calm     96% 0.04 in 0 W/m2
03:16 43.2 °F 42.1 °F 29.8 in Calm     96% 0.03 in 0 W/m2
03:21 43.2 °F 42.1 °F 29.8 in Calm     96% 0.04 in 0 W/m2
03:26 43.3 °F 42.3 °F 29.8 in Calm     96% 0.03 in 0 W/m2
03:31 43.3 °F 42.3 °F 29.8 in Calm     96% 0.02 in 0 W/m2
03:36 43.3 °F 42.3 °F 29.8 in Calm     96% 0.02 in 0 W/m2
03:41 43.5 °F 42.4 °F 29.8 in Calm     96% 0.02 in 0 W/m2
03:46 43.5 °F 42.8 °F 29.8 in Calm     97% 0.03 in 0 W/m2
03:51 43.5 °F 42.8 °F 29.8 in Calm     97% 0.03 in 0 W/m2
03:56 43.7 °F 42.6 °F 29.8 in Calm     96% 0.02 in 0 W/m2
04:01 43.7 °F 42.6 °F 29.8 in Calm     96% 0.02 in 0 W/m2
04:06 43.9 °F 42.8 °F 29.8 in Calm     96% 0.03 in 0 W/m2
04:11 43.9 °F 43.2 °F 29.8 in Calm     97% 0.03 in 0 W/m2
04:16 44.1 °F 43.3 °F 29.8 in Calm     97% 0.03 in 0 W/m2
04:21 44.1 °F 43.3 °F 29.8 in Calm     97% 0.02 in 0 W/m2
04:26 44.2 °F 43.5 °F 29.8 in Calm   2 mph 97% 0.02 in 0 W/m2
04:31 44.2 °F 43.5 °F 29.8 in Calm     97% 0.03 in 0 W/m2
04:36 44.2 °F 43.5 °F 29.8 in Calm   2 mph 97% 0.02 in 0 W/m2
04:41 44.4 °F 43.7 °F 29.8 in Calm     97% 0.02 in 0 W/m2
04:46 44.4 °F 43.7 °F 29.8 in Calm     97% 0.02 in 0 W/m2
04:51 44.4 °F 43.7 °F 29.8 in Calm     97% 0.02 in 0 W/m2
04:56 44.4 °F 43.7 °F 29.8 in Calm     97% 0.03 in 0 W/m2
05:01 44.4 °F 43.7 °F 29.8 in Calm     97% 0.03 in 0 W/m2
05:06 44.4 °F 43.7 °F 29.8 in Calm     97% 0.02 in 0 W/m2
05:11 44.4 °F 43.7 °F 29.8 in Calm     97% 0.02 in 0 W/m2
05:16 44.4 °F 43.7 °F 29.8 in Calm     97% 0.03 in 0 W/m2
05:21 44.4 °F 43.7 °F 29.8 in East 2 mph 2 mph 97% 0.03 in 0 W/m2
05:26 44.4 °F 43.7 °F 29.8 in East 0.9 mph 1 mph 97% 0.03 in 0 W/m2
05:31 44.6 °F 43.9 °F 29.8 in Calm     97% 0.02 in 0 W/m2
05:36 44.8 °F 44.1 °F 29.8 in Calm     97% 0.02 in 0 W/m2
05:41 44.8 °F 44.1 °F 29.8 in Calm     97% 0.03 in 0 W/m2
05:46 44.8 °F 44.1 °F 29.8 in Calm     97% 0.02 in 0 W/m2
05:51 44.8 °F 44.1 °F 29.8 in Calm     97% 0.02 in 0 W/m2
05:56 44.8 °F 44.1 °F 29.8 in Calm     97% 0.02 in 0 W/m2
06:01 44.8 °F 44.1 °F 29.8 in East 0.9 mph 1 mph 97% 0.02 in 0 W/m2
06:06 45 °F 44.2 °F 29.8 in East 0.9 mph 1 mph 97% 0.02 in 0 W/m2
06:11 45 °F 44.2 °F 29.8 in Calm   1 mph 97% 0.02 in 0 W/m2
06:16 45 °F 44.2 °F 29.8 in Calm   1 mph 97% 0.01 in 0 W/m2
06:21 45 °F 44.2 °F 29.8 in Calm     97% 0.01 in 0 W/m2
06:26 45 °F 44.2 °F 29.8 in Calm     97% 0.01 in 0 W/m2
06:31 45 °F 44.2 °F 29.8 in Calm   1 mph 97% 0.01 in 0 W/m2
06:36 45 °F 44.2 °F 29.8 in Calm     97% 0.01 in 0 W/m2
06:41 45.1 °F 44.4 °F 29.8 in Calm     97% 0 in 0 W/m2
06:46 45.1 °F 44.4 °F 29.8 in Calm   2 mph 97% 0 in 0 W/m2
06:51 45.1 °F 44.4 °F 29.8 in Calm     97% 0 in 0 W/m2
06:56 45.1 °F 44.4 °F 29.8 in Calm   1 mph 97% 0 in 0 W/m2
07:01 45.3 °F 44.6 °F 29.8 in ENE 0.9 mph 2 mph 97% 0 in 0 W/m2
07:06 45.3 °F 44.6 °F 29.8 in Calm     97% 0 in 0 W/m2
07:11 45.3 °F 44.6 °F 29.8 in ENE 0.9 mph 2 mph 97% 0 in 0 W/m2
07:16 45.3 °F 44.6 °F 29.8 in Calm   2 mph 97% 0 in 0 W/m2
07:21 45.3 °F 44.6 °F 29.8 in ENE 0.9 mph 3 mph 97% 0 in 0 W/m2
07:26 45.3 °F 44.6 °F 29.8 in Calm     97% 0 in 0 W/m2
07:31 45.3 °F 44.6 °F 29.8 in Calm   2 mph 97% 0 in 0 W/m2
07:36 45.3 °F 44.6 °F 29.8 in Calm     97% 0 in 0 W/m2
07:41 45.3 °F 44.6 °F 29.8 in Calm     97% 0 in 0 W/m2
07:46 45.3 °F 44.6 °F 29.8 in Calm     97% 0.01 in 0 W/m2
07:51 45.3 °F 44.6 °F 29.8 in Calm     97% 0.01 in 0 W/m2
07:56 45.3 °F 44.6 °F 29.8 in Calm     97% 0.01 in 0 W/m2
08:01 45.1 °F 44.4 °F 29.8 in Calm     97% 0.02 in 0 W/m2
08:06 45.1 °F 44.4 °F 29.8 in Calm     97% 0.02 in 0 W/m2
08:11 45.1 °F 44.4 °F 29.8 in Calm     97% 0.02 in 0 W/m2
08:16 45.1 °F 44.4 °F 29.8 in Calm     97% 0.02 in 0 W/m2
08:22 45.3 °F 44.6 °F 29.8 in Calm     97% 0.02 in 0 W/m2
08:27 45.1 °F 44.4 °F 29.8 in Calm     97% 0.02 in 0 W/m2
08:32 45.1 °F 44.4 °F 29.8 in Calm     97% 0.02 in 0 W/m2
08:37 45.1 °F 44.4 °F 29.8 in Calm     97% 0.02 in 0 W/m2
08:42 45.3 °F 44.6 °F 29.8 in Calm     97% 0.03 in 0 W/m2
08:47 45.3 °F 44.6 °F 29.8 in Calm     97% 0.03 in 0 W/m2
08:52 45.3 °F 44.6 °F 29.8 in Calm     97% 0.03 in 7 W/m2
08:57 45.3 °F 44.6 °F 29.8 in Calm     97% 0.04 in 11 W/m2
09:02 45.3 °F 44.6 °F 29.8 in Calm     97% 0.03 in 16 W/m2
09:07 45.3 °F 44.6 °F 29.8 in Calm     97% 0.03 in 23 W/m2
09:12 45.5 °F 44.8 °F 29.8 in Calm     97% 0.02 in 25 W/m2
09:17 45.7 °F 45 °F 29.8 in Calm     97% 0.02 in 21 W/m2
09:22 45.7 °F 45.1 °F 29.8 in Calm     98% 0.03 in 16 W/m2
09:27 45.9 °F 45.3 °F 29.8 in Calm     98% 0.03 in 12 W/m2
09:32 46 °F 45.3 °F 29.8 in Calm     97% 0.03 in 11 W/m2
09:37 46.2 °F 45.5 °F 29.8 in Calm     97% 0.03 in 9 W/m2
09:42 46.2 °F 45.7 °F 29.8 in Calm   1 mph 98% 0.02 in 11 W/m2
09:47 46.6 °F 46 °F 29.8 in East 0.9 mph 2 mph 98% 0.02 in 7 W/m2
09:52 46.8 °F 46.2 °F 29.8 in East 2 mph 2 mph 98% 0.02 in 12 W/m2
09:57 46.9 °F 46.4 °F 29.8 in East 0.9 mph 2 mph 98% 0.02 in 16 W/m2
10:02 46.9 °F 46.4 °F 29.8 in Calm   3 mph 98% 0.02 in 12 W/m2
10:07 47.1 °F 46.6 °F 29.8 in ENE 2 mph 4 mph 98% 0.02 in 12 W/m2
10:12 47.1 °F 46.6 °F 29.8 in ESE 2 mph 3 mph 98% 0.03 in 11 W/m2
10:17 47.1 °F 46.6 °F 29.8 in ENE 0.9 mph 2 mph 98% 0.03 in 19 W/m2
10:22 47.1 °F 46.6 °F 29.8 in East 0.9 mph 3 mph 98% 0.03 in 25 W/m2
10:27 47.3 °F 46.8 °F 29.8 in ENE 2 mph 3 mph 98% 0.03 in 30 W/m2
10:32 47.3 °F 46.6 °F 29.8 in East 2 mph 2 mph 97% 0.04 in 28 W/m2
10:42 47.5 °F 46.9 °F 29.8 in ENE 0.9 mph 3 mph 98% 0.05 in 25 W/m2
10:47 47.5 °F 46.9 °F 29.8 in NE 0.9 mph 2 mph 98% 0.06 in 23 W/m2
10:52 47.7 °F 47.1 °F 29.8 in East 2.9 mph 4 mph 98% 0.06 in 26 W/m2
10:57 47.7 °F 47.1 °F 29.8 in East 2 mph 3 mph 98% 0.06 in 39 W/m2
11:02 47.8 °F 47.3 °F 29.8 in East 0.9 mph 4 mph 98% 0.06 in 40 W/m2
11:07 47.8 °F 47.3 °F 29.8 in ESE 0.9 mph 2 mph 98% 0.06 in 33 W/m2
11:12 47.8 °F 47.3 °F 29.8 in NNE 0.9 mph 3 mph 98% 0.06 in 30 W/m2
11:17 48 °F 47.5 °F 29.8 in NE 0.9 mph 3 mph 98% 0.06 in 39 W/m2
11:22 48 °F 47.5 °F 29.8 in ENE 2 mph 3 mph 98% 0.06 in 30 W/m2
11:27 48.2 °F 47.7 °F 29.8 in NE 2 mph 3 mph 98% 0.06 in 35 W/m2
11:32 48.4 °F 47.8 °F 29.8 in Calm   3 mph 98% 0.06 in 37 W/m2
11:37 48.6 °F 48 °F 29.8 in East 2 mph 4 mph 98% 0.05 in 33 W/m2
11:42 48.6 °F 48 °F 29.8 in Calm   2 mph 98% 0.06 in 32 W/m2
11:47 48.7 °F 48.2 °F 29.8 in East 0.9 mph 4 mph 98% 0.06 in 30 W/m2
11:52 48.9 °F 48.4 °F 29.8 in NNE 0.9 mph 1 mph 98% 0.05 in 33 W/m2
11:57 49.1 °F 48.6 °F 29.8 in Calm   1 mph 98% 0.06 in 39 W/m2
12:02 49.3 °F 48.7 °F 29.8 in NNE 2 mph 3 mph 98% 0.06 in 56 W/m2
12:07 49.5 °F 48.9 °F 29.8 in Calm   1 mph 98% 0.06 in 42 W/m2
12:12 49.6 °F 49.1 °F 29.8 in NE 0.9 mph 3 mph 98% 0.05 in 40 W/m2
12:17 49.6 °F 49.1 °F 29.8 in East 0.9 mph 3 mph 98% 0.05 in 39 W/m2
12:22 49.8 °F 49.3 °F 29.8 in NNW 0.9 mph 2 mph 98% 0.05 in 35 W/m2
12:27 49.8 °F 49.3 °F 29.8 in West 2 mph 4 mph 98% 0.04 in 44 W/m2
12:32 50 °F 49.5 °F 29.8 in NNW 4 mph 4 mph 98% 0.04 in 56 W/m2
12:37 50.2 °F 49.6 °F 29.8 in North 2 mph 2 mph 98% 0.04 in 35 W/m2
12:42 50.2 °F 49.6 °F 29.8 in Calm   1 mph 98% 0.04 in 28 W/m2
12:47 50.2 °F 49.6 °F 29.8 in North 0.9 mph 2 mph 98% 0.03 in 21 W/m2
12:52 50.2 °F 49.6 °F 29.8 in Calm   1 mph 98% 0.04 in 18 W/m2
12:57 50.4 °F 49.8 °F 29.8 in WNW 2 mph 6 mph 98% 0.03 in 19 W/m2
13:02 50.4 °F 49.5 °F 29.8 in Calm   2 mph 97% 0.02 in 25 W/m2
13:07 50.4 °F 49.8 °F 29.8 in NNE 0.9 mph 4 mph 98% 0.02 in 11 W/m2
13:12 50.4 °F 49.5 °F 29.8 in North 0.9 mph 2 mph 97% 0.02 in 21 W/m2
13:17 50.4 °F 49.5 °F 29.8 in North 0.9 mph 4 mph 97% 0.02 in 25 W/m2
13:22 50.5 °F 49.6 °F 29.8 in ENE 0.9 mph 3 mph 97% 0.02 in 35 W/m2
13:27 50.5 °F 49.6 °F 29.8 in Calm   2 mph 97% 0.02 in 28 W/m2
13:32 50.5 °F 49.6 °F 29.8 in East 0.9 mph 3 mph 97% 0.02 in 23 W/m2
13:37 50.5 °F 49.6 °F 29.8 in NW 0.9 mph 2 mph 97% 0.02 in 39 W/m2
13:42 50.7 °F 49.8 °F 29.8 in North 2.9 mph 5 mph 97% 0.01 in 32 W/m2
13:47 50.7 °F 49.8 °F 29.8 in Calm   3 mph 97% 0.01 in 44 W/m2
13:52 50.7 °F 49.8 °F 29.8 in NNW 2 mph 6 mph 97% 0 in 53 W/m2
13:57 50.7 °F 49.6 °F 29.8 in NNE 2.9 mph 3 mph 96% 0 in 69 W/m2
14:02 50.9 °F 49.8 °F 29.8 in North 0.9 mph 3 mph 96% 0 in 74 W/m2
14:07 50.7 °F 49.6 °F 29.8 in ENE 4 mph 6 mph 96% 0 in 49 W/m2
14:12 50.7 °F 49.6 °F 29.8 in WNW 2.9 mph 6 mph 96% 0 in 69 W/m2
14:17 50.9 °F 49.8 °F 29.8 in NNW 4 mph 5 mph 96% 0.01 in 90 W/m2
14:22 50.9 °F 49.8 °F 29.9 in West 0.9 mph 3 mph 96% 0.01 in 32 W/m2
14:27 50.9 °F 49.8 °F 29.9 in NE 0.9 mph 3 mph 96% 0.01 in 33 W/m2
14:32 50.7 °F 49.6 °F 29.9 in West 2.9 mph 11 mph 96% 0.01 in 42 W/m2
14:37 50.7 °F 49.6 °F 29.9 in WNW 2 mph 3 mph 96% 0.01 in 21 W/m2
14:42 50.7 °F 49.6 °F 29.9 in Calm   6 mph 96% 0.01 in 16 W/m2
14:47 50.7 °F 49.6 °F 29.9 in West 2 mph 4 mph 96% 0.02 in 12 W/m2
14:52 50.7 °F 49.6 °F 29.9 in WNW 4 mph 4 mph 96% 0.02 in 30 W/m2
14:58 50.7 °F 49.6 °F 29.9 in WSW 0.9 mph 2 mph 96% 0.02 in 37 W/m2
15:03 50.7 °F 49.6 °F 29.9 in West 2.9 mph 4 mph 96% 0.02 in 42 W/m2
15:08 50.7 °F 49.3 °F 29.9 in WNW 2.9 mph 4 mph 95% 0.02 in 46 W/m2
15:13 50.5 °F 49.1 °F 29.9 in Calm   4 mph 95% 0.02 in 37 W/m2
15:18 50.5 °F 49.1 °F 29.9 in WNW 2.9 mph 4 mph 95% 0.01 in 30 W/m2
15:23 50.5 °F 49.1 °F 29.9 in West 2.9 mph 7 mph 95% 0.01 in 26 W/m2
15:28 50.5 °F 49.1 °F 29.9 in WSW 0.9 mph 3 mph 95% 0.01 in 28 W/m2
15:33 50.5 °F 49.1 °F 29.9 in WNW 4.9 mph 9 mph 95% 0.01 in 23 W/m2
15:38 50.5 °F 49.1 °F 29.9 in WNW 4 mph 7 mph 95% 0.01 in 26 W/m2
15:43 50.4 °F 48.9 °F 29.9 in West 4 mph 8 mph 95% 0.01 in 26 W/m2
15:48 50.4 °F 48.9 °F 29.9 in West 2 mph 4 mph 95% 0 in 18 W/m2
15:53 50.4 °F 48.9 °F 29.9 in WSW 0.9 mph 5 mph 95% 0 in 16 W/m2
15:58 50.4 °F 48.9 °F 29.9 in WNW 4 mph 6 mph 95% 0 in 26 W/m2
16:03 50.4 °F 48.9 °F 29.9 in NW 4 mph 4 mph 95% 0 in 33 W/m2
16:08 50.4 °F 48.9 °F 29.9 in WNW 2 mph 3 mph 95% 0 in 26 W/m2
16:13 50.4 °F 48.9 °F 29.9 in West 4 mph 4 mph 95% 0 in 26 W/m2
16:18 50.4 °F 48.7 °F 29.9 in SSW 0.9 mph 4 mph 94% 0 in 14 W/m2
16:23 50.2 °F 48.6 °F 29.9 in SW 0.9 mph 6 mph 94% 0 in 11 W/m2
16:28 50.2 °F 48.7 °F 29.9 in WSW 2.9 mph 4 mph 95% 0 in 7 W/m2
16:33 50.2 °F 48.7 °F 29.9 in WSW 2 mph 3 mph 95% 0 in 0 W/m2
16:38 50 °F 48.6 °F 29.9 in WNW 2.9 mph 4 mph 95% 0 in 0 W/m2
16:43 50 °F 48.6 °F 29.9 in Calm   2 mph 95% 0 in 0 W/m2
16:48 49.8 °F 48.4 °F 29.9 in Calm     95% 0 in 0 W/m2
16:53 49.8 °F 48.4 °F 29.9 in Calm   1 mph 95% 0 in 0 W/m2
16:58 49.8 °F 48.4 °F 29.9 in Calm     95% 0 in 0 W/m2
17:03 49.6 °F 48.2 °F 29.9 in Calm     95% 0 in 0 W/m2
17:08 49.6 °F 48.2 °F 29.9 in Calm   2 mph 95% 0.01 in 0 W/m2
17:13 49.5 °F 48 °F 29.9 in Calm   1 mph 95% 0.01 in 0 W/m2
17:18 49.5 °F 48 °F 29.9 in West 0.9 mph 2 mph 95% 0.02 in 0 W/m2
17:23 49.5 °F 48 °F 29.9 in West 0.9 mph 1 mph 95% 0.02 in 0 W/m2
17:28 49.3 °F 47.8 °F 29.9 in Calm     95% 0.02 in 0 W/m2
17:33 49.3 °F 47.8 °F 29.9 in West 0.9 mph 3 mph 95% 0.02 in 0 W/m2
17:38 49.1 °F 48 °F 29.9 in WNW 2.9 mph 4 mph 96% 0.02 in 0 W/m2
17:43 49.1 °F 48 °F 29.9 in WNW 0.9 mph 3 mph 96% 0.02 in 0 W/m2
17:48 48.9 °F 47.8 °F 29.9 in WSW 0.9 mph 2 mph 96% 0.02 in 0 W/m2
17:53 48.9 °F 47.5 °F 29.9 in Calm   1 mph 95% 0.02 in 0 W/m2
17:58 48.7 °F 47.3 °F 29.9 in West 0.9 mph 2 mph 95% 0.02 in 0 W/m2
18:03 48.7 °F 47.3 °F 29.9 in Calm     95% 0.02 in 0 W/m2
18:08 48.6 °F 47.1 °F 29.9 in Calm     95% 0.01 in 0 W/m2
18:13 48.4 °F 46.9 °F 29.9 in Calm     95% 0.01 in 0 W/m2
18:18 48.4 °F 47.3 °F 29.9 in Calm     96% 0 in 0 W/m2
18:23 48.2 °F 46.8 °F 29.9 in Calm   1 mph 95% 0 in 0 W/m2
18:28 48 °F 46.6 °F 29.9 in Calm   3 mph 95% 0 in 0 W/m2
18:33 48 °F 46.9 °F 29.9 in Calm     96% 0 in 0 W/m2
18:38 48 °F 46.9 °F 29.9 in Calm   3 mph 96% 0 in 0 W/m2
18:43 47.8 °F 46.4 °F 29.9 in Calm   1 mph 95% 0 in 0 W/m2
18:48 47.5 °F 46 °F 29.9 in Calm     95% 0 in 0 W/m2
18:53 47.1 °F 45.7 °F 29.9 in Calm     95% 0 in 0 W/m2
18:58 46.9 °F 45.5 °F 29.9 in Calm   1 mph 95% 0 in 0 W/m2
19:03 46.8 °F 45.7 °F 29.9 in Calm     96% 0 in 0 W/m2
19:08 46.6 °F 45.5 °F 29.9 in Calm     96% 0 in 0 W/m2
19:13 46.4 °F 45.3 °F 29.9 in Calm     96% 0 in 0 W/m2
19:18 46.2 °F 45.1 °F 29.9 in Calm     96% 0 in 0 W/m2
19:23 46 °F 45 °F 29.9 in Calm     96% 0 in 0 W/m2
19:28 45.9 °F 44.4 °F 29.9 in Calm     95% 0 in 0 W/m2
19:33 45.5 °F 44.4 °F 30 in Calm     96% 0 in 0 W/m2
19:38 45.1 °F 43.9 °F 30 in WNW 0.9 mph 2 mph 95% 0 in 0 W/m2
19:43 45 °F 43.9 °F 30 in Calm   2 mph 96% 0 in 0 W/m2
19:48 45 °F 43.9 °F 30 in Calm     96% 0 in 0 W/m2
19:53 45 °F 43.9 °F 30 in Calm     96% 0 in 0 W/m2
19:58 45 °F 43.9 °F 30 in Calm     96% 0 in 0 W/m2
20:03 45 °F 43.9 °F 30 in Calm   1 mph 96% 0 in 0 W/m2
20:08 45 °F 43.9 °F 30 in Calm   1 mph 96% 0 in 0 W/m2
20:13 45 °F 43.9 °F 30 in Calm     96% 0 in 0 W/m2
20:18 45.1 °F 44.1 °F 30 in Calm   1 mph 96% 0 in 0 W/m2
20:23 45.1 °F 44.4 °F 30 in Calm   2 mph 97% 0 in 0 W/m2
20:28 45.3 °F 44.6 °F 30 in Calm     97% 0 in 0 W/m2
20:33 45.5 °F 44.8 °F 30 in Calm   2 mph 97% 0 in 0 W/m2
20:38 45.5 °F 44.8 °F 30 in Calm     97% 0 in 0 W/m2
20:43 45.5 °F 44.8 °F 30 in Calm     97% 0 in 0 W/m2
20:48 45.3 °F 44.6 °F 30 in Calm     97% 0 in 0 W/m2
20:53 45.1 °F 44.4 °F 30 in Calm     97% 0 in 0 W/m2
20:58 45 °F 43.9 °F 30 in Calm     96% 0 in 0 W/m2
21:03 44.8 °F 43.7 °F 30 in Calm     96% 0 in 0 W/m2
21:08 44.6 °F 43.9 °F 30 in Calm     97% 0 in 0 W/m2
21:13 44.4 °F 43.3 °F 30 in Calm     96% 0 in 0 W/m2
21:18 44.2 °F 43.2 °F 30 in Calm     96% 0 in 0 W/m2
21:23 44.1 °F 43 °F 30 in Calm     96% 0 in 0 W/m2
21:28 43.9 °F 42.8 °F 30 in Calm     96% 0 in 0 W/m2
21:33 43.5 °F 42.4 °F 30 in Calm     96% 0 in 0 W/m2
21:38 43.5 °F 42.8 °F 30 in Calm     97% 0 in 0 W/m2
21:43 43.7 °F 43 °F 30 in Calm     97% 0 in 0 W/m2
21:48 43.7 °F 43 °F 30 in Calm     97% 0 in 0 W/m2
21:53 43.5 °F 42.8 °F 30 in Calm     97% 0 in 0 W/m2
21:58 43.3 °F 42.6 °F 30 in Calm     97% 0 in 0 W/m2
22:03 43.3 °F 42.6 °F 30 in Calm     97% 0 in 0 W/m2
22:08 43.3 °F 42.6 °F 30 in Calm   1 mph 97% 0 in 0 W/m2
22:13 43.3 °F 42.6 °F 30 in Calm     97% 0 in 0 W/m2
22:18 43.2 °F 42.4 °F 30 in East 2 mph 4 mph 97% 0.01 in 0 W/m2
22:23 43.3 °F 42.6 °F 30 in Calm     97% 0.01 in 0 W/m2
22:28 43.3 °F 42.6 °F 30 in Calm   4 mph 97% 0.01 in 0 W/m2
22:33 43.3 °F 42.6 °F 30 in Calm     97% 0.01 in 0 W/m2
22:38 43.3 °F 42.6 °F 30 in Calm   2 mph 97% 0.01 in 0 W/m2
22:43 43.2 °F 42.4 °F 30 in Calm     97% 0.01 in 0 W/m2
22:48 43.2 °F 42.4 °F 30 in Calm     97% 0.01 in 0 W/m2
22:53 43.2 °F 42.4 °F 30 in Calm     97% 0.01 in 0 W/m2
22:58 43 °F 42.3 °F 30 in Calm     97% 0.01 in 0 W/m2
23:03 42.8 °F 42.1 °F 30 in Calm     97% 0.01 in 0 W/m2
23:08 42.6 °F 41.9 °F 30 in SW 0.9 mph 2 mph 97% 0.01 in 0 W/m2
23:13 42.6 °F 41.9 °F 30 in Calm   2 mph 97% 0.01 in 0 W/m2
23:18 42.8 °F 42.1 °F 30 in WNW 0.9 mph 1 mph 97% 0 in 0 W/m2
23:23 43 °F 42.3 °F 30 in Calm     97% 0 in 0 W/m2
23:28 42.6 °F 41.9 °F 30 in Calm     97% 0 in 0 W/m2
23:33 42.6 °F 41.9 °F 30 in Calm     97% 0 in 0 W/m2
23:38 42.4 °F 41.7 °F 30 in WNW 2 mph 2 mph 97% 0 in 0 W/m2
23:43 42.3 °F 41.5 °F 30 in Calm     97% 0 in 0 W/m2
23:48 42.3 °F 41.5 °F 30 in Calm     97% 0 in 0 W/m2
23:53 42.1 °F 41.4 °F 30 in West 2 mph 3 mph 97% 0 in 0 W/m2
23:58 42.3 °F 41.5 °F 30 in WSW 2 mph 3 mph 97% 0 in 0 W/m2
Juneau County Weather
Compliments of Weather Underground - 4 mb